LFSB/MLH METAR and TAF weather

Enter ICAO airport designator
Station Type Date Time Source
LFSB METAR 2022/10/01 07:00 UTC NOAA

LFSB 010700Z AUTO 15007KT 9999 ///TCU 09/08 Q1015 BECMG BKN035


Station Type Date Time Source
LFSB Decoded METAR 2022/10/01 07:00 UTC NOAA

Bale-Mulhouse, France (LFSB) 47-36N 007-31E 271M
Oct 01, 2022 - 03:00 AM EDT / 2022.10.01 0700 UTC
Wind: from the SSE (150 degrees) at 8 MPH (7 KT):0
Visibility: greater than 7 mile(s):0
Weather: Towering cumulus clouds observed
Temperature: 48 F (9 C)
Dew Point: 46 F (8 C)
Relative Humidity: 93%
Pressure (altimeter): 29.97 in. Hg (1015 hPa)
ob: LFSB 010700Z AUTO 15007KT 9999 ///TCU 09/08 Q1015 BECMG BKN035
cycle: 7

Station Type Date Time Source
LFSB TAF 2022/10/01 06:21 UTC NOAA

TAF TAF LFSB 010500Z 0106/0206 15008KT CAVOK
BECMG 0106/0108 -RA BKN035
BECMG 0112/0115 NSW PROB40
TEMPO 0118/0124 25015G25KT -SHRA FEW025TCU
TEMPO 0202/0206 RA BKN014

Example: see airport list